createdAt,value
2023-04-25T00:00:22.383Z,18.40
2023-04-25T00:01:22.372Z,17.90
2023-04-25T00:02:22.699Z,20.20
2023-04-25T00:03:22.815Z,18.00
2023-04-25T00:04:22.859Z,17.80
2023-04-25T00:05:22.447Z,17.50
2023-04-25T00:06:22.465Z,19.50
2023-04-25T00:07:22.541Z,17.30
2023-04-25T00:08:22.447Z,19.20
2023-04-25T00:09:22.525Z,17.20
2023-04-25T00:10:22.375Z,19.70
2023-04-25T00:11:22.466Z,18.20
2023-04-25T00:12:22.546Z,18.30
2023-04-25T00:13:22.460Z,18.20
2023-04-25T00:14:22.429Z,17.10
2023-04-25T00:15:22.248Z,18.20
2023-04-25T00:16:22.612Z,18.10
2023-04-25T00:17:22.495Z,17.10
2023-04-25T00:18:22.303Z,20.10
2023-04-25T00:19:22.449Z,18.60
2023-04-25T00:20:22.358Z,17.40
2023-04-25T00:21:22.359Z,18.00
2023-04-25T00:22:22.346Z,15.70
2023-04-25T00:23:22.485Z,16.70
2023-04-25T00:24:22.412Z,19.60
2023-04-25T00:25:22.309Z,19.90
2023-04-25T00:26:22.273Z,17.80
2023-04-25T00:27:22.241Z,19.00
2023-04-25T00:28:22.125Z,17.40
2023-04-25T00:29:22.197Z,16.90
2023-04-25T00:30:22.042Z,17.90
2023-04-25T00:31:22.215Z,17.90
2023-04-25T00:32:22.174Z,18.80
2023-04-25T00:33:22.200Z,18.10
2023-04-25T00:34:22.214Z,18.80
2023-04-25T00:35:22.229Z,18.80
2023-04-25T00:36:22.154Z,19.40
2023-04-25T00:37:22.138Z,21.10
2023-04-25T00:38:22.125Z,15.80
2023-04-25T00:39:22.211Z,19.20
2023-04-25T00:40:22.169Z,16.50
2023-04-25T00:41:22.150Z,17.90
2023-04-25T00:42:22.225Z,17.40
2023-04-25T00:43:22.190Z,17.20
2023-04-25T00:44:22.155Z,17.00
2023-04-25T00:45:21.885Z,19.50
2023-04-25T00:46:22.046Z,18.00
2023-04-25T00:47:22.135Z,19.80
2023-04-25T00:48:21.972Z,17.10
2023-04-25T00:49:22.032Z,19.30
2023-04-25T00:50:21.920Z,21.20
2023-04-25T00:51:22.008Z,19.40
2023-04-25T00:52:22.021Z,18.60
2023-04-25T00:53:21.942Z,15.70
2023-04-25T00:54:21.937Z,22.40
2023-04-25T00:55:21.994Z,17.90
2023-04-25T00:56:21.889Z,19.70
2023-04-25T00:57:21.901Z,20.10
2023-04-25T00:58:21.904Z,18.10
2023-04-25T00:59:21.986Z,17.20
2023-04-25T01:00:21.734Z,17.10
2023-04-25T01:01:21.986Z,22.40
2023-04-25T01:02:22.146Z,19.20
2023-04-25T01:03:22.121Z,19.20
2023-04-25T01:04:21.913Z,17.80
2023-04-25T01:05:21.960Z,18.70
2023-04-25T01:06:21.740Z,18.80
2023-04-25T01:07:21.718Z,17.30
2023-04-25T01:08:21.821Z,18.40
2023-04-25T01:09:21.839Z,17.80
2023-04-25T01:10:21.720Z,15.30
2023-04-25T01:11:21.827Z,17.60
2023-04-25T01:12:21.804Z,18.90
2023-04-25T01:13:21.710Z,17.20
2023-04-25T01:14:21.605Z,20.00
2023-04-25T01:15:21.578Z,19.70
2023-04-25T01:16:21.819Z,20.90
2023-04-25T01:17:21.687Z,17.70
2023-04-25T01:18:21.755Z,16.80
2023-04-25T01:19:21.656Z,19.60
2023-04-25T01:20:21.633Z,19.30
2023-04-25T01:21:21.619Z,19.80
2023-04-25T01:22:21.692Z,19.00
2023-04-25T01:23:21.607Z,19.40
2023-04-25T01:24:21.613Z,18.30
2023-04-25T01:25:21.606Z,22.90
2023-04-25T01:26:21.685Z,20.70
2023-04-25T01:27:21.678Z,20.90
2023-04-25T01:28:21.678Z,19.20
2023-04-25T01:29:21.619Z,20.20
2023-04-25T01:30:21.415Z,20.30
2023-04-25T01:31:21.677Z,20.90
2023-04-25T01:32:21.596Z,21.80
2023-04-25T01:33:21.630Z,20.20
2023-04-25T01:34:21.613Z,23.30
2023-04-25T01:35:21.583Z,23.40
2023-04-25T01:36:21.483Z,20.20
2023-04-25T01:37:21.472Z,21.10
2023-04-25T01:38:21.461Z,24.80
2023-04-25T01:39:21.630Z,20.60
2023-04-25T01:40:21.437Z,19.90
2023-04-25T01:41:22.213Z,21.70
2023-04-25T01:42:21.448Z,22.30
2023-04-25T01:43:21.436Z,18.60
2023-04-25T01:44:21.425Z,20.30
2023-04-25T01:45:21.289Z,21.70
2023-04-25T01:46:21.497Z,19.90
2023-04-25T01:47:21.385Z,19.20
2023-04-25T01:48:21.338Z,22.00
2023-04-25T01:49:21.408Z,19.20
2023-04-25T01:50:21.418Z,20.70
2023-04-25T01:51:21.313Z,20.20
2023-04-25T01:52:21.448Z,21.10
2023-04-25T01:53:21.273Z,19.70
2023-04-25T01:54:21.325Z,18.60
2023-04-25T01:55:21.381Z,18.80
2023-04-25T01:56:21.383Z,22.30
2023-04-25T01:57:21.299Z,18.80
2023-04-25T01:58:21.278Z,19.50
2023-04-25T01:59:21.259Z,21.00
2023-04-25T02:00:21.132Z,20.40
2023-04-25T02:01:21.271Z,21.30
2023-04-25T02:02:21.326Z,19.20
2023-04-25T02:03:21.377Z,21.40
2023-04-25T02:04:21.294Z,19.10
2023-04-25T02:05:21.225Z,17.50
2023-04-25T02:06:21.221Z,20.10
2023-04-25T02:07:21.136Z,19.60
2023-04-25T02:08:21.147Z,20.60
2023-04-25T02:09:21.004Z,19.50
2023-04-25T02:10:20.985Z,20.60
2023-04-25T02:11:21.154Z,19.50
2023-04-25T02:12:21.156Z,19.60
2023-04-25T02:13:21.164Z,19.90
2023-04-25T02:14:21.081Z,19.80
2023-04-25T02:15:21.044Z,20.80
2023-04-25T02:16:21.112Z,19.40
2023-04-25T02:17:21.211Z,20.20
2023-04-25T02:18:21.124Z,21.10
2023-04-25T02:19:21.062Z,20.40
2023-04-25T02:20:20.982Z,17.50
2023-04-25T02:21:21.003Z,16.90
2023-04-25T02:22:21.075Z,20.50
2023-04-25T02:23:21.068Z,16.90
2023-04-25T02:24:20.982Z,17.00
2023-04-25T02:25:21.042Z,16.00
2023-04-25T02:26:20.955Z,17.40
2023-04-25T02:27:21.024Z,16.30
2023-04-25T02:28:20.932Z,18.20
2023-04-25T02:29:20.921Z,17.00
2023-04-25T02:30:20.861Z,16.30
2023-04-25T02:31:20.958Z,17.80
2023-04-25T02:32:20.936Z,16.60
2023-04-25T02:33:20.963Z,16.30
2023-04-25T02:34:20.986Z,14.60
2023-04-25T02:35:20.865Z,15.50
2023-04-25T02:36:20.828Z,15.60
2023-04-25T02:37:20.690Z,14.30
2023-04-25T02:38:20.802Z,14.30
2023-04-25T02:39:20.926Z,13.50
2023-04-25T02:40:20.796Z,13.90
2023-04-25T02:41:20.987Z,15.70
2023-04-25T02:42:20.854Z,14.10
2023-04-25T02:43:20.644Z,14.90
2023-04-25T02:44:20.930Z,14.30
2023-04-25T02:45:20.777Z,13.00
2023-04-25T02:46:32.268Z,14.10
2023-04-25T02:47:20.903Z,14.90
2023-04-25T02:48:20.760Z,13.90
2023-04-25T02:49:20.786Z,14.50
2023-04-25T02:50:21.226Z,13.20
2023-04-25T02:51:20.626Z,12.80
2023-04-25T02:52:20.702Z,11.90
2023-04-25T02:53:20.756Z,11.90
2023-04-25T02:54:20.729Z,11.70
2023-04-25T02:55:20.725Z,13.30
2023-04-25T02:56:20.791Z,13.30
2023-04-25T02:57:20.707Z,12.10
2023-04-25T02:58:20.685Z,12.50
2023-04-25T02:59:20.462Z,13.10
2023-04-25T03:00:20.635Z,12.70
2023-04-25T03:01:20.715Z,12.60
2023-04-25T03:02:20.637Z,12.80
2023-04-25T03:03:20.777Z,11.60
2023-04-25T03:04:20.712Z,12.90
2023-04-25T03:05:20.537Z,14.20
2023-04-25T03:06:20.657Z,12.70
2023-04-25T03:07:20.533Z,14.10
2023-04-25T03:08:20.555Z,16.10
2023-04-25T03:09:20.522Z,13.10
2023-04-25T03:10:20.450Z,16.90
2023-04-25T03:11:20.604Z,12.80
2023-04-25T03:12:20.654Z,13.80
2023-04-25T03:13:20.316Z,13.20
2023-04-25T03:14:20.328Z,14.40
2023-04-25T03:15:20.377Z,14.50
2023-04-25T03:16:20.483Z,15.10
2023-04-25T03:17:20.496Z,14.40
2023-04-25T03:18:20.309Z,14.80
2023-04-25T03:19:20.388Z,13.50
2023-04-25T03:20:20.427Z,12.00
2023-04-25T03:21:20.422Z,14.90
2023-04-25T03:22:20.488Z,13.60
2023-04-25T03:23:20.332Z,16.20
2023-04-25T03:24:20.419Z,16.70
2023-04-25T03:25:20.355Z,16.40
2023-04-25T03:26:20.273Z,17.20
2023-04-25T03:27:20.215Z,17.80
2023-04-25T03:28:20.303Z,16.90
2023-04-25T03:29:20.166Z,17.30
2023-04-25T03:30:20.146Z,18.80
2023-04-25T03:31:20.336Z,18.60
2023-04-25T03:32:20.444Z,17.30
2023-04-25T03:33:20.339Z,20.00
2023-04-25T03:34:20.330Z,18.00
2023-04-25T03:35:20.113Z,18.00
2023-04-25T03:36:20.205Z,17.00
2023-04-25T03:37:20.190Z,16.40
2023-04-25T03:38:20.210Z,19.10
2023-04-25T03:39:20.153Z,17.70
2023-04-25T03:40:20.173Z,20.90
2023-04-25T03:41:20.017Z,17.60
2023-04-25T03:42:20.028Z,18.80
2023-04-25T03:43:19.995Z,15.60
2023-04-25T03:44:20.134Z,14.80
2023-04-25T03:45:20.311Z,18.10
2023-04-25T03:46:20.132Z,19.70
2023-04-25T03:47:20.146Z,16.90
2023-04-25T03:48:20.032Z,21.60
2023-04-25T03:49:20.095Z,15.90
2023-04-25T03:50:20.008Z,20.40
2023-04-25T03:51:20.194Z,20.00
2023-04-25T03:52:20.025Z,21.30
2023-04-25T03:53:19.858Z,18.30
2023-04-25T03:54:20.025Z,18.40
2023-04-25T03:55:20.105Z,19.00
2023-04-25T03:56:19.868Z,20.10
2023-04-25T03:57:19.930Z,15.90
2023-04-25T03:58:19.799Z,19.20
2023-04-25T03:59:19.969Z,17.70
2023-04-25T04:00:19.846Z,17.20
2023-04-25T04:01:19.880Z,16.80
2023-04-25T04:02:19.895Z,20.80
2023-04-25T04:03:20.112Z,18.50
2023-04-25T04:04:20.038Z,18.00
2023-04-25T04:05:19.964Z,18.20
2023-04-25T04:06:19.875Z,18.30
2023-04-25T04:07:19.693Z,16.80
2023-04-25T04:08:19.697Z,19.50
2023-04-25T04:09:19.702Z,16.80
2023-04-25T04:10:19.682Z,20.10
2023-04-25T04:11:19.783Z,22.10
2023-04-25T04:12:19.856Z,17.00
2023-04-25T04:13:19.860Z,16.90
2023-04-25T04:14:19.790Z,17.90
2023-04-25T04:15:19.784Z,19.00
2023-04-25T04:16:19.850Z,20.00
2023-04-25T04:17:19.620Z,19.10
2023-04-25T04:18:19.713Z,18.30
2023-04-25T04:19:19.698Z,19.70
2023-04-25T04:20:19.681Z,17.90
2023-04-25T04:21:19.674Z,19.60
2023-04-25T04:22:19.778Z,19.40
2023-04-25T04:23:19.716Z,20.50
2023-04-25T04:24:19.719Z,18.60
2023-04-25T04:25:19.668Z,23.30
2023-04-25T04:26:19.473Z,19.50
2023-04-25T04:27:19.504Z,20.00
2023-04-25T04:28:19.522Z,21.70
2023-04-25T04:29:19.718Z,16.30
2023-04-25T04:30:19.635Z,19.20
2023-04-25T04:31:19.673Z,19.40
2023-04-25T04:32:19.486Z,22.00
2023-04-25T04:33:19.683Z,18.10
2023-04-25T04:34:19.484Z,19.20
2023-04-25T04:35:19.436Z,23.10
2023-04-25T04:36:19.469Z,20.50
2023-04-25T04:37:19.400Z,20.00
2023-04-25T04:38:19.617Z,17.10
2023-04-25T04:39:19.559Z,21.90
2023-04-25T04:40:19.535Z,16.50
2023-04-25T04:41:19.386Z,20.10
2023-04-25T04:42:19.368Z,22.00
2023-04-25T04:43:19.488Z,21.60
2023-04-25T04:44:19.463Z,20.50
2023-04-25T04:45:19.314Z,18.30
2023-04-25T04:46:19.600Z,21.80
2023-04-25T04:47:19.329Z,20.40
2023-04-25T04:48:19.352Z,15.50
2023-04-25T04:49:19.277Z,17.80
2023-04-25T04:50:19.347Z,19.60
2023-04-25T04:51:19.338Z,21.70
2023-04-25T04:52:19.275Z,18.90
2023-04-25T04:53:19.312Z,18.60
2023-04-25T04:54:19.236Z,19.50
2023-04-25T04:55:19.221Z,19.00
2023-04-25T04:56:19.230Z,22.00
2023-04-25T04:57:19.244Z,18.20
2023-04-25T04:58:19.311Z,19.50
2023-04-25T04:59:19.182Z,21.00
2023-04-25T05:00:19.380Z,21.00
2023-04-25T05:01:19.341Z,18.50
2023-04-25T05:02:19.384Z,20.40
2023-04-25T05:03:19.231Z,19.00
2023-04-25T05:04:19.135Z,21.60
2023-04-25T05:05:19.133Z,20.70
2023-04-25T05:06:19.350Z,17.10
2023-04-25T05:07:19.285Z,18.40
2023-04-25T05:08:19.189Z,20.70
2023-04-25T05:09:19.276Z,21.80
2023-04-25T05:10:19.049Z,21.20
2023-04-25T05:11:19.050Z,18.80
2023-04-25T05:12:19.217Z,21.70
2023-04-25T05:13:19.222Z,20.60
2023-04-25T05:14:19.237Z,15.70
2023-04-25T05:15:19.255Z,15.50
2023-04-25T05:16:19.220Z,21.60
2023-04-25T05:17:19.134Z,23.20
2023-04-25T05:18:20.548Z,19.60
2023-04-25T05:19:19.137Z,18.90
2023-04-25T05:20:19.115Z,20.20
2023-04-25T05:21:19.087Z,17.30
2023-04-25T05:22:19.155Z,18.40
2023-04-25T05:23:19.056Z,22.10
2023-04-25T05:24:19.037Z,16.70
2023-04-25T05:25:19.074Z,21.00
2023-04-25T05:26:19.022Z,18.80
2023-04-25T05:27:19.077Z,17.70
2023-04-25T05:28:18.982Z,18.50
2023-04-25T05:29:18.981Z,15.20
2023-04-25T05:30:19.026Z,22.20
2023-04-25T05:31:18.998Z,19.20
2023-04-25T05:32:19.191Z,18.70
2023-04-25T05:33:19.011Z,19.50
2023-04-25T05:34:19.018Z,19.00
2023-04-25T05:35:19.028Z,20.90
2023-04-25T05:36:18.943Z,21.50
2023-04-25T05:37:18.866Z,16.20
2023-04-25T05:38:18.958Z,20.20
2023-04-25T05:39:18.874Z,18.70
2023-04-25T05:40:18.883Z,19.80
2023-04-25T05:41:18.872Z,18.80
2023-04-25T05:42:18.883Z,18.50
2023-04-25T05:43:18.879Z,21.20
2023-04-25T05:44:18.949Z,19.50
2023-04-25T05:45:18.847Z,23.20
2023-04-25T05:46:18.861Z,18.70
2023-04-25T05:47:18.774Z,21.10
2023-04-25T05:48:18.663Z,22.70
2023-04-25T05:49:19.775Z,18.50
2023-04-25T05:50:18.797Z,18.60
2023-04-25T05:51:18.857Z,17.40
2023-04-25T05:52:18.881Z,22.70
2023-04-25T05:53:18.775Z,18.90
2023-04-25T05:54:18.588Z,20.50
2023-04-25T05:55:18.780Z,17.80
2023-04-25T05:56:18.726Z,20.50
2023-04-25T05:57:18.724Z,19.80
2023-04-25T05:58:18.780Z,20.50
2023-04-25T05:59:18.503Z,19.70
2023-04-25T06:00:18.773Z,19.70
2023-04-25T06:01:18.627Z,19.60
2023-04-25T06:02:18.735Z,18.60
2023-04-25T06:03:20.447Z,18.70
2023-04-25T06:04:19.096Z,19.80
2023-04-25T06:05:18.774Z,21.30
2023-04-25T06:06:18.936Z,17.60
2023-04-25T06:07:18.671Z,20.20
2023-04-25T06:08:18.687Z,20.00
2023-04-25T06:09:18.466Z,20.40
2023-04-25T06:10:18.566Z,17.60
2023-04-25T06:11:18.669Z,28.20
2023-04-25T06:12:18.542Z,22.50
2023-04-25T06:13:18.519Z,27.80
2023-04-25T06:14:18.693Z,22.70
2023-04-25T06:15:28.091Z,23.00
2023-04-25T06:16:18.701Z,27.40
2023-04-25T06:17:18.486Z,21.80
2023-04-25T06:18:18.569Z,21.10
2023-04-25T06:19:18.546Z,21.20
2023-04-25T06:20:18.514Z,21.70
2023-04-25T06:21:18.498Z,20.60
2023-04-25T06:22:18.468Z,19.40
2023-04-25T06:23:18.522Z,20.00
2023-04-25T06:24:18.543Z,19.00
2023-04-25T06:25:18.439Z,23.40
2023-04-25T06:26:18.405Z,25.80
2023-04-25T06:27:18.389Z,20.60
2023-04-25T06:28:18.440Z,17.70
2023-04-25T06:29:18.477Z,18.50
2023-04-25T06:30:18.381Z,19.20
2023-04-25T06:31:18.388Z,21.70
2023-04-25T06:32:18.436Z,22.40
2023-04-25T06:33:18.349Z,19.20
2023-04-25T06:34:18.309Z,21.10
2023-04-25T06:35:18.279Z,18.70
2023-04-25T06:36:18.321Z,17.80
2023-04-25T06:37:18.190Z,16.20
2023-04-25T06:38:18.377Z,18.90
2023-04-25T06:39:18.340Z,19.00
2023-04-25T06:40:18.212Z,16.70
2023-04-25T06:41:18.242Z,18.50
2023-04-25T06:42:18.204Z,18.90
2023-04-25T06:43:18.236Z,19.10
2023-04-25T06:44:18.187Z,21.20
2023-04-25T06:45:18.310Z,18.00
2023-04-25T06:46:18.256Z,16.90
2023-04-25T06:47:18.199Z,19.40
2023-04-25T06:48:18.179Z,14.40
2023-04-25T06:49:18.159Z,19.90
2023-04-25T06:50:18.193Z,18.90
2023-04-25T06:51:18.257Z,19.30
2023-04-25T06:52:18.112Z,17.80
2023-04-25T06:53:18.155Z,17.40
2023-04-25T06:54:18.198Z,15.90
2023-04-25T06:55:18.164Z,17.30
2023-04-25T06:56:18.142Z,18.70
2023-04-25T06:57:18.112Z,18.60
2023-04-25T06:58:18.101Z,18.90
2023-04-25T06:59:18.096Z,15.30
2023-04-25T07:00:18.095Z,17.70
2023-04-25T07:01:18.088Z,19.50
2023-04-25T07:02:18.074Z,18.90
2023-04-25T07:03:18.248Z,15.90
2023-04-25T07:04:18.135Z,19.10
2023-04-25T07:05:19.269Z,18.60
2023-04-25T07:06:18.015Z,18.90
2023-04-25T07:07:17.958Z,19.00
2023-04-25T07:08:17.962Z,18.20
2023-04-25T07:09:17.970Z,17.10
2023-04-25T07:10:18.061Z,16.10
2023-04-25T07:11:17.905Z,16.60
2023-04-25T07:12:17.908Z,19.20
2023-04-25T07:13:17.927Z,14.90
2023-04-25T07:14:17.937Z,18.60
2023-04-25T07:15:17.952Z,16.20
2023-04-25T07:16:17.959Z,16.40
2023-04-25T07:17:17.881Z,14.40
2023-04-25T07:18:17.931Z,19.30
2023-04-25T07:19:17.825Z,16.10
2023-04-25T07:20:17.965Z,16.60
2023-04-25T07:21:17.865Z,17.00
2023-04-25T07:22:17.942Z,18.00
2023-04-25T07:23:17.843Z,17.50
2023-04-25T07:24:17.833Z,15.50
2023-04-25T07:25:17.825Z,18.90
2023-04-25T07:26:17.814Z,17.10
2023-04-25T07:27:17.795Z,16.10
2023-04-25T07:28:19.541Z,19.20
2023-04-25T07:29:17.762Z,16.80
2023-04-25T07:30:17.753Z,16.90
2023-04-25T07:31:17.683Z,17.50
2023-04-25T07:32:17.716Z,18.20
2023-04-25T07:33:17.774Z,17.90
2023-04-25T07:34:17.682Z,16.00
2023-04-25T07:35:17.628Z,15.20
2023-04-25T07:36:17.631Z,15.40
2023-04-25T07:37:17.659Z,16.00
2023-04-25T07:38:17.709Z,19.60
2023-04-25T07:39:17.613Z,15.10
2023-04-25T07:40:17.624Z,15.60
2023-04-25T07:41:17.580Z,15.50
2023-04-25T07:42:17.625Z,15.10
2023-04-25T07:43:17.704Z,16.60
2023-04-25T07:44:17.642Z,17.80
2023-04-25T07:45:17.503Z,15.50
2023-04-25T07:46:17.653Z,16.10
2023-04-25T07:47:17.635Z,16.60
2023-04-25T07:48:17.562Z,16.00
2023-04-25T07:49:17.527Z,18.10
2023-04-25T07:50:17.443Z,15.80
2023-04-25T07:51:17.481Z,21.10
2023-04-25T07:52:17.467Z,17.30
2023-04-25T07:53:17.554Z,17.00
2023-04-25T07:54:17.548Z,17.50
2023-04-25T07:55:17.464Z,18.20
2023-04-25T07:56:17.468Z,16.60
2023-04-25T07:57:17.468Z,20.00
2023-04-25T07:58:17.466Z,17.10
2023-04-25T07:59:17.457Z,18.10
2023-04-25T08:00:17.465Z,20.70
2023-04-25T08:01:17.434Z,18.20
2023-04-25T08:02:17.477Z,18.50
2023-04-25T08:03:17.695Z,18.90
2023-04-25T08:04:17.467Z,16.40
2023-04-25T08:05:20.344Z,16.20
2023-04-25T08:06:17.492Z,19.50
2023-04-25T08:07:17.325Z,16.60
2023-04-25T08:08:17.335Z,17.90
2023-04-25T08:09:17.288Z,15.80
2023-04-25T08:10:17.388Z,14.40
2023-04-25T08:11:17.309Z,14.50
2023-04-25T08:12:17.325Z,16.00
2023-04-25T08:13:17.310Z,17.10
2023-04-25T08:14:17.288Z,18.00
2023-04-25T08:15:17.349Z,14.00
2023-04-25T08:16:17.363Z,16.10
2023-04-25T08:17:17.282Z,15.10
2023-04-25T08:18:17.819Z,16.10
2023-04-25T08:19:17.633Z,17.60
2023-04-25T08:20:17.325Z,14.30
2023-04-25T08:21:17.335Z,12.10
2023-04-25T08:22:17.175Z,15.60
2023-04-25T08:23:17.172Z,16.20
2023-04-25T08:24:17.223Z,17.10
2023-04-25T08:25:17.085Z,15.80
2023-04-25T08:26:17.172Z,14.80
2023-04-25T08:27:17.194Z,14.20
2023-04-25T08:28:17.268Z,13.30
2023-04-25T08:29:17.148Z,13.50
2023-04-25T08:30:17.143Z,15.70
2023-04-25T08:31:17.161Z,13.80
2023-04-25T08:32:17.185Z,14.10
2023-04-25T08:33:17.206Z,15.30
2023-04-25T08:34:17.056Z,13.90
2023-04-25T08:35:17.092Z,12.20
2023-04-25T08:36:24.511Z,13.20
2023-04-25T08:37:17.298Z,12.00
2023-04-25T08:38:16.970Z,12.00
2023-04-25T08:39:16.974Z,12.40
2023-04-25T08:40:16.884Z,11.00
2023-04-25T08:41:16.941Z,14.80
2023-04-25T08:42:17.015Z,13.20
2023-04-25T08:43:16.960Z,15.00
2023-04-25T08:44:17.010Z,13.80
2023-04-25T08:45:16.963Z,12.20
2023-04-25T08:46:16.994Z,10.70
2023-04-25T08:47:16.875Z,12.60
2023-04-25T08:48:16.939Z,11.70
2023-04-25T08:49:16.722Z,12.90
2023-04-25T08:50:16.899Z,13.30
2023-04-25T08:51:17.001Z,9.50
2023-04-25T08:52:16.847Z,10.20
2023-04-25T08:53:17.194Z,11.80
2023-04-25T08:54:30.178Z,11.70
2023-04-25T08:55:16.877Z,9.90
2023-04-25T08:56:16.791Z,10.10
2023-04-25T08:57:16.773Z,10.20
2023-04-25T08:58:16.679Z,11.00
2023-04-25T08:59:20.650Z,9.20
2023-04-25T09:00:18.811Z,10.40
2023-04-25T09:01:16.874Z,11.60
2023-04-25T09:02:17.989Z,12.20
2023-04-25T09:03:16.945Z,13.90
2023-04-25T09:04:17.033Z,11.70
2023-04-25T09:05:16.734Z,11.90
2023-04-25T09:06:16.833Z,9.90
2023-04-25T09:07:16.744Z,10.90
2023-04-25T09:08:16.689Z,11.20
2023-04-25T09:09:16.788Z,10.30
2023-04-25T09:10:16.567Z,10.90
2023-04-25T09:11:16.621Z,12.70
2023-04-25T09:12:16.641Z,11.20
2023-04-25T09:13:16.695Z,12.50
2023-04-25T09:14:16.665Z,12.30
2023-04-25T09:16:16.745Z,13.00
2023-04-25T09:17:16.628Z,12.00
2023-04-25T09:18:16.700Z,9.50
2023-04-25T09:19:16.616Z,9.60
2023-04-25T09:20:16.690Z,10.00
2023-04-25T09:21:16.614Z,10.60
2023-04-25T09:22:16.594Z,12.30
2023-04-25T09:23:16.445Z,13.20
2023-04-25T09:24:16.372Z,11.40
2023-04-25T09:25:16.344Z,10.70
2023-04-25T09:26:16.642Z,10.70
2023-04-25T09:27:16.528Z,11.30
2023-04-25T09:28:16.443Z,11.20
2023-04-25T09:29:16.509Z,11.30
2023-04-25T09:30:16.501Z,11.70
2023-04-25T09:31:16.409Z,10.20
2023-04-25T09:32:16.613Z,10.30
2023-04-25T09:33:16.482Z,12.00
2023-04-25T09:34:16.440Z,10.40
2023-04-25T09:35:16.437Z,10.20
2023-04-25T09:36:16.424Z,11.70
2023-04-25T09:37:16.493Z,10.70
2023-04-25T09:38:16.461Z,12.60
2023-04-25T09:39:16.388Z,11.60
2023-04-25T09:40:16.266Z,10.80
2023-04-25T09:41:17.857Z,11.20
2023-04-25T09:42:16.225Z,9.90
2023-04-25T09:43:16.192Z,11.10
2023-04-25T09:44:16.268Z,9.60
2023-04-25T09:45:16.168Z,11.30
2023-04-25T09:46:16.159Z,9.30
2023-04-25T09:47:16.187Z,10.30
2023-04-25T09:48:16.174Z,8.00
2023-04-25T09:49:16.139Z,10.00
2023-04-25T09:50:16.162Z,9.30
2023-04-25T09:51:16.088Z,10.10
2023-04-25T09:52:16.122Z,11.80
2023-04-25T09:53:16.100Z,10.20
2023-04-25T09:54:16.157Z,8.70
2023-04-25T09:55:16.098Z,6.80
2023-04-25T09:56:16.078Z,7.90
2023-04-25T09:57:16.064Z,8.70
2023-04-25T09:58:16.115Z,11.80
2023-04-25T09:59:16.133Z,8.90
2023-04-25T10:00:16.082Z,9.70
2023-04-25T10:01:16.080Z,12.00
2023-04-25T10:02:16.046Z,8.50
2023-04-25T10:03:16.044Z,10.70
2023-04-25T10:04:16.176Z,8.30
2023-04-25T10:05:16.014Z,10.30
2023-04-25T10:06:15.954Z,9.30
2023-04-25T10:07:15.947Z,8.80
2023-04-25T10:08:15.947Z,10.00
2023-04-25T10:09:16.050Z,11.90
2023-04-25T10:10:16.095Z,11.40
2023-04-25T10:11:15.922Z,12.50
2023-04-25T10:12:15.938Z,10.20
2023-04-25T10:13:15.919Z,13.50
2023-04-25T10:14:15.957Z,11.90
2023-04-25T10:15:15.976Z,11.80
2023-04-25T10:16:16.087Z,9.90
2023-04-25T10:17:16.020Z,10.80
2023-04-25T10:18:16.007Z,8.10
2023-04-25T10:19:15.972Z,9.20
2023-04-25T10:20:15.966Z,10.70
2023-04-25T10:21:15.920Z,13.20
2023-04-25T10:22:15.975Z,13.20
2023-04-25T10:23:15.913Z,10.20
2023-04-25T10:24:15.882Z,10.50
2023-04-25T10:25:15.902Z,10.50
2023-04-25T10:26:15.879Z,10.10
2023-04-25T10:27:15.968Z,11.30
2023-04-25T10:28:15.678Z,8.40
2023-04-25T10:29:15.829Z,9.70
2023-04-25T10:30:16.221Z,8.70
2023-04-25T10:31:15.878Z,10.50
2023-04-25T10:32:16.043Z,13.20
2023-04-25T10:33:15.896Z,9.00
2023-04-25T10:34:15.884Z,9.80
2023-04-25T10:35:15.813Z,8.00
2023-04-25T10:36:15.754Z,10.90
2023-04-25T10:37:15.757Z,8.90
2023-04-25T10:38:15.826Z,8.20
2023-04-25T10:39:15.771Z,11.60
2023-04-25T10:40:15.702Z,9.70
2023-04-25T10:41:15.791Z,12.80
2023-04-25T10:42:15.749Z,11.50
2023-04-25T10:43:15.745Z,8.40
2023-04-25T10:44:15.753Z,9.60
2023-04-25T10:45:15.772Z,10.70
2023-04-25T10:46:15.703Z,11.60
2023-04-25T10:47:15.759Z,8.50
2023-04-25T10:48:15.659Z,8.70
2023-04-25T10:49:16.250Z,9.20
2023-04-25T10:50:15.621Z,9.40
2023-04-25T10:51:15.614Z,9.80
2023-04-25T10:52:15.668Z,10.00
2023-04-25T10:53:15.646Z,11.40
2023-04-25T10:54:15.621Z,7.10
2023-04-25T10:55:15.635Z,7.90
2023-04-25T10:56:15.575Z,10.10
2023-04-25T10:57:15.612Z,9.20
2023-04-25T10:58:15.511Z,10.10
2023-04-25T10:59:15.482Z,9.80
2023-04-25T11:00:15.660Z,9.30
2023-04-25T11:01:15.615Z,9.00
2023-04-25T11:02:15.746Z,8.50
2023-04-25T11:03:15.622Z,10.00
2023-04-25T11:04:15.844Z,10.70
2023-04-25T11:05:15.455Z,10.10
2023-04-25T11:06:15.423Z,8.90
2023-04-25T11:07:15.560Z,9.00
2023-04-25T11:08:15.412Z,6.60
2023-04-25T11:09:15.444Z,10.40
2023-04-25T11:10:15.396Z,10.80
2023-04-25T11:11:15.349Z,8.40
2023-04-25T11:12:15.373Z,9.70
2023-04-25T11:13:15.369Z,10.90
2023-04-25T11:14:15.385Z,9.80
2023-04-25T11:15:15.383Z,6.50
2023-04-25T11:17:15.512Z,8.40
2023-04-25T11:18:15.416Z,10.40
2023-04-25T11:19:15.347Z,9.50
2023-04-25T11:20:15.378Z,8.80
2023-04-25T11:21:15.298Z,8.00
2023-04-25T11:22:15.272Z,7.60
2023-04-25T11:23:15.244Z,9.30
2023-04-25T11:24:15.223Z,8.80
2023-04-25T11:25:15.194Z,7.70
2023-04-25T11:26:15.269Z,6.80
2023-04-25T11:27:15.095Z,9.90
2023-04-25T11:28:15.224Z,7.40
2023-04-25T11:29:15.124Z,6.90
2023-04-25T11:30:15.079Z,9.30
2023-04-25T11:31:15.071Z,7.60
2023-04-25T11:32:15.129Z,8.00
2023-04-25T11:33:15.054Z,9.10
2023-04-25T11:34:15.013Z,7.90
2023-04-25T11:35:14.957Z,9.80
2023-04-25T11:36:14.970Z,9.30
2023-04-25T11:37:15.041Z,10.10
2023-04-25T11:38:14.927Z,9.50
2023-04-25T11:39:14.913Z,8.60
2023-04-25T11:40:14.940Z,10.50
2023-04-25T11:41:14.943Z,10.00
2023-04-25T11:42:15.030Z,10.10
2023-04-25T11:43:14.882Z,7.30
2023-04-25T11:44:14.884Z,8.60
2023-04-25T11:45:14.896Z,7.70
2023-04-25T11:46:14.915Z,9.20
2023-04-25T11:47:14.853Z,9.50
2023-04-25T11:48:15.659Z,9.00
2023-04-25T11:49:14.850Z,10.60
2023-04-25T11:50:14.895Z,10.40
2023-04-25T11:51:14.856Z,9.20
2023-04-25T11:52:14.857Z,8.20
2023-04-25T11:53:14.829Z,8.80
2023-04-25T11:54:14.832Z,8.60
2023-04-25T11:55:14.817Z,9.80
2023-04-25T11:56:14.996Z,10.10
2023-04-25T11:57:14.897Z,11.10
2023-04-25T11:58:14.961Z,10.10
2023-04-25T11:59:14.739Z,12.30
2023-04-25T12:00:18.107Z,10.70
2023-04-25T12:01:14.829Z,9.30
2023-04-25T12:02:14.769Z,6.70
2023-04-25T12:03:14.914Z,9.10
2023-04-25T12:04:15.100Z,9.20
2023-04-25T12:05:30.344Z,10.10
2023-04-25T12:06:15.239Z,10.80
2023-04-25T12:07:14.760Z,10.00
2023-04-25T12:08:14.781Z,11.20
2023-04-25T12:09:14.664Z,9.00
2023-04-25T12:10:14.635Z,10.90
2023-04-25T12:11:14.770Z,9.00
2023-04-25T12:12:14.809Z,10.20
2023-04-25T12:13:14.735Z,10.90
2023-04-25T12:14:14.695Z,9.90
2023-04-25T12:15:14.585Z,10.50
2023-04-25T12:16:14.772Z,10.00
2023-04-25T12:17:14.724Z,7.20
2023-04-25T12:18:14.761Z,9.30
2023-04-25T12:19:14.752Z,8.60
2023-04-25T12:20:14.635Z,6.80
2023-04-25T12:21:14.675Z,9.40
2023-04-25T12:22:14.626Z,10.80
2023-04-25T12:23:14.580Z,9.80
2023-04-25T12:24:14.707Z,9.90
2023-04-25T12:25:14.587Z,8.30
2023-04-25T12:26:14.611Z,9.30
2023-04-25T12:27:14.564Z,8.60
2023-04-25T12:28:14.583Z,10.50
2023-04-25T12:29:14.681Z,10.50
2023-04-25T12:30:14.612Z,10.40
2023-04-25T12:31:14.673Z,10.20
2023-04-25T12:32:14.486Z,10.10
2023-04-25T12:33:14.592Z,8.90
2023-04-25T12:34:14.513Z,10.70
2023-04-25T12:35:14.624Z,7.70
2023-04-25T12:36:14.608Z,8.00
2023-04-25T12:37:14.493Z,8.10
2023-04-25T12:38:14.569Z,8.50
2023-04-25T12:39:14.436Z,9.20
2023-04-25T12:40:14.334Z,9.00
2023-04-25T12:41:14.515Z,10.70
2023-04-25T12:42:14.383Z,9.50
2023-04-25T12:43:14.340Z,9.20
2023-04-25T12:44:14.451Z,10.40
2023-04-25T12:45:14.449Z,8.30
2023-04-25T12:46:14.466Z,10.10
2023-04-25T12:47:14.319Z,11.40
2023-04-25T12:48:14.419Z,10.00
2023-04-25T12:49:18.766Z,8.60
2023-04-25T12:50:14.297Z,10.40
2023-04-25T12:51:14.294Z,9.60
2023-04-25T12:52:14.117Z,11.00
2023-04-25T12:53:14.440Z,10.10
2023-04-25T12:54:14.408Z,12.30
2023-04-25T12:55:14.147Z,11.40
2023-04-25T12:56:14.119Z,8.70
2023-04-25T12:57:14.098Z,12.70
2023-04-25T12:58:14.294Z,10.10